sensor_id;sensor_type;location;lat;lon;timestamp;pressure;altitude;pressure_sealevel;temperature;humidity
80323;BME280;69636;52.372;13.610;2024-03-02T00:01:44;100337.28;;;7.04;100.00
80323;BME280;69636;52.372;13.610;2024-03-02T00:04:11;100334.94;;;7.01;100.00
80323;BME280;69636;52.372;13.610;2024-03-02T00:06:39;100337.41;;;7.02;100.00
80323;BME280;69636;52.372;13.610;2024-03-02T00:09:09;100328.84;;;7.00;100.00
80323;BME280;69636;52.372;13.610;2024-03-02T00:11:40;100340.22;;;7.01;100.00
80323;BME280;69636;52.372;13.610;2024-03-02T00:14:08;100337.69;;;7.09;100.00
80323;BME280;69636;52.372;13.610;2024-03-02T00:16:35;100336.59;;;7.02;100.00
80323;BME280;69636;52.372;13.610;2024-03-02T00:19:02;100335.22;;;6.98;100.00
80323;BME280;69636;52.372;13.610;2024-03-02T00:21:31;100328.41;;;7.05;100.00
80323;BME280;69636;52.372;13.610;2024-03-02T00:23:58;100326.44;;;7.07;100.00
80323;BME280;69636;52.372;13.610;2024-03-02T00:26:26;100323.25;;;7.03;100.00
80323;BME280;69636;52.372;13.610;2024-03-02T00:28:56;100322.28;;;7.04;100.00
80323;BME280;69636;52.372;13.610;2024-03-02T00:31:24;100320.22;;;6.98;100.00
80323;BME280;69636;52.372;13.610;2024-03-02T00:33:51;100322.31;;;6.95;100.00
80323;BME280;69636;52.372;13.610;2024-03-02T00:36:22;100323.28;;;6.94;100.00
80323;BME280;69636;52.372;13.610;2024-03-02T00:38:52;100320.91;;;6.91;100.00
80323;BME280;69636;52.372;13.610;2024-03-02T00:41:22;100312.19;;;7.00;100.00
80323;BME280;69636;52.372;13.610;2024-03-02T00:44:09;100322.72;;;7.00;100.00
80323;BME280;69636;52.372;13.610;2024-03-02T00:46:40;100317.69;;;7.06;100.00
80323;BME280;69636;52.372;13.610;2024-03-02T00:49:12;100322.97;;;7.06;100.00
80323;BME280;69636;52.372;13.610;2024-03-02T00:51:46;100327.41;;;7.06;100.00
80323;BME280;69636;52.372;13.610;2024-03-02T00:54:14;100316.03;;;7.15;100.00
80323;BME280;69636;52.372;13.610;2024-03-02T00:56:42;100318.53;;;7.07;100.00
80323;BME280;69636;52.372;13.610;2024-03-02T00:59:11;100318.41;;;6.99;100.00
80323;BME280;69636;52.372;13.610;2024-03-02T01:01:38;100319.41;;;6.98;100.00
80323;BME280;69636;52.372;13.610;2024-03-02T01:04:06;100313.16;;;6.99;100.00
80323;BME280;69636;52.372;13.610;2024-03-02T01:06:34;100319.13;;;7.01;100.00
80323;BME280;69636;52.372;13.610;2024-03-02T01:09:02;100312.19;;;7.00;100.00
80323;BME280;69636;52.372;13.610;2024-03-02T01:11:29;100311.44;;;7.17;100.00
80323;BME280;69636;52.372;13.610;2024-03-02T01:13:57;100307.25;;;7.24;100.00
80323;BME280;69636;52.372;13.610;2024-03-02T01:16:26;100306.28;;;7.15;100.00
80323;BME280;69636;52.372;13.610;2024-03-02T01:18:53;100312.00;;;7.11;100.00
80323;BME280;69636;52.372;13.610;2024-03-02T01:21:21;100314.22;;;7.06;100.00
80323;BME280;69636;52.372;13.610;2024-03-02T01:23:48;100310.34;;;7.10;100.00
80323;BME280;69636;52.372;13.610;2024-03-02T01:26:17;100305.75;;;7.12;100.00
80323;BME280;69636;52.372;13.610;2024-03-02T01:28:44;100301.44;;;7.11;100.00
80323;BME280;69636;52.372;13.610;2024-03-02T01:31:13;100296.72;;;7.05;100.00
80323;BME280;69636;52.372;13.610;2024-03-02T01:33:42;100294.91;;;7.05;100.00
80323;BME280;69636;52.372;13.610;2024-03-02T01:36:10;100285.19;;;7.06;100.00
80323;BME280;69636;52.372;13.610;2024-03-02T01:38:39;100283.53;;;7.05;100.00
80323;BME280;69636;52.372;13.610;2024-03-02T01:41:07;100282.84;;;7.03;100.00
80323;BME280;69636;52.372;13.610;2024-03-02T01:43:35;100285.34;;;7.04;100.00
80323;BME280;69636;52.372;13.610;2024-03-02T01:46:07;100279.78;;;7.07;100.00
80323;BME280;69636;52.372;13.610;2024-03-02T01:48:34;100280.47;;;7.09;100.00
80323;BME280;69636;52.372;13.610;2024-03-02T01:51:03;100277.38;;;7.24;100.00
80323;BME280;69636;52.372;13.610;2024-03-02T01:53:32;100279.06;;;7.15;100.00
80323;BME280;69636;52.372;13.610;2024-03-02T01:56:00;100274.91;;;7.12;100.00
80323;BME280;69636;52.372;13.610;2024-03-02T01:58:27;100272.13;;;7.14;100.00
80323;BME280;69636;52.372;13.610;2024-03-02T02:00:55;100275.31;;;7.18;100.00
80323;BME280;69636;52.372;13.610;2024-03-02T02:03:23;100270.19;;;7.16;100.00
80323;BME280;69636;52.372;13.610;2024-03-02T02:05:52;100264.63;;;7.19;100.00
80323;BME280;69636;52.372;13.610;2024-03-02T02:08:21;100273.91;;;7.23;100.00
80323;BME280;69636;52.372;13.610;2024-03-02T02:10:50;100281.56;;;7.26;100.00
80323;BME280;69636;52.372;13.610;2024-03-02T02:13:18;100284.56;;;7.31;100.00
80323;BME280;69636;52.372;13.610;2024-03-02T02:15:46;100281.66;;;7.34;100.00
80323;BME280;69636;52.372;13.610;2024-03-02T02:18:14;100280.13;;;7.32;100.00
80323;BME280;69636;52.372;13.610;2024-03-02T02:20:42;100277.06;;;7.36;100.00
80323;BME280;69636;52.372;13.610;2024-03-02T02:23:10;100277.47;;;7.41;100.00
80323;BME280;69636;52.372;13.610;2024-03-02T02:25:38;100279.66;;;7.46;100.00
80323;BME280;69636;52.372;13.610;2024-03-02T02:28:05;100271.47;;;7.49;100.00
80323;BME280;69636;52.372;13.610;2024-03-02T02:30:34;100265.28;;;7.58;100.00
80323;BME280;69636;52.372;13.610;2024-03-02T02:33:02;100271.13;;;7.62;100.00
80323;BME280;69636;52.372;13.610;2024-03-02T02:35:29;100273.47;;;7.65;100.00
80323;BME280;69636;52.372;13.610;2024-03-02T02:38:00;100268.31;;;7.63;100.00
80323;BME280;69636;52.372;13.610;2024-03-02T02:40:30;100275.13;;;7.66;100.00
80323;BME280;69636;52.372;13.610;2024-03-02T02:42:58;100278.78;;;7.82;100.00
80323;BME280;69636;52.372;13.610;2024-03-02T02:45:26;100274.72;;;7.88;100.00
80323;BME280;69636;52.372;13.610;2024-03-02T02:47:54;100283.19;;;7.92;100.00
80323;BME280;69636;52.372;13.610;2024-03-02T02:50:24;100277.97;;;7.82;100.00
80323;BME280;69636;52.372;13.610;2024-03-02T02:52:51;100272.91;;;7.89;100.00
80323;BME280;69636;52.372;13.610;2024-03-02T02:55:19;100284.44;;;7.97;100.00
80323;BME280;69636;52.372;13.610;2024-03-02T02:57:47;100271.38;;;7.96;100.00
80323;BME280;69636;52.372;13.610;2024-03-02T03:00:17;100272.78;;;7.90;100.00
80323;BME280;69636;52.372;13.610;2024-03-02T03:02:46;100278.22;;;7.89;100.00
80323;BME280;69636;52.372;13.610;2024-03-02T03:05:13;100274.28;;;7.93;100.00
80323;BME280;69636;52.372;13.610;2024-03-02T03:07:43;100268.81;;;8.04;100.00
80323;BME280;69636;52.372;13.610;2024-03-02T03:10:11;100272.88;;;7.98;100.00
80323;BME280;69636;52.372;13.610;2024-03-02T03:12:38;100274.25;;;8.02;100.00
80323;BME280;69636;52.372;13.610;2024-03-02T03:15:09;100263.69;;;8.02;100.00
80323;BME280;69636;52.372;13.610;2024-03-02T03:17:37;100264.50;;;8.03;100.00
80323;BME280;69636;52.372;13.610;2024-03-02T03:20:06;100263.00;;;8.00;100.00
80323;BME280;69636;52.372;13.610;2024-03-02T03:22:34;100269.13;;;8.01;100.00
80323;BME280;69636;52.372;13.610;2024-03-02T03:25:02;100270.63;;;8.03;100.00
80323;BME280;69636;52.372;13.610;2024-03-02T03:27:30;100268.13;;;8.02;100.00
80323;BME280;69636;52.372;13.610;2024-03-02T03:29:57;100260.06;;;8.03;100.00
80323;BME280;69636;52.372;13.610;2024-03-02T03:32:29;100259.81;;;7.97;100.00
80323;BME280;69636;52.372;13.610;2024-03-02T03:34:56;100263.97;;;7.99;100.00
80323;BME280;69636;52.372;13.610;2024-03-02T03:37:24;100271.50;;;7.94;100.00
80323;BME280;69636;52.372;13.610;2024-03-02T03:39:51;100269.84;;;7.93;100.00
80323;BME280;69636;52.372;13.610;2024-03-02T03:42:18;100274.16;;;7.94;100.00
80323;BME280;69636;52.372;13.610;2024-03-02T03:44:46;100282.03;;;8.04;100.00
80323;BME280;69636;52.372;13.610;2024-03-02T03:47:13;100278.56;;;8.03;100.00
80323;BME280;69636;52.372;13.610;2024-03-02T03:49:43;100282.03;;;8.04;100.00
80323;BME280;69636;52.372;13.610;2024-03-02T03:52:10;100280.97;;;8.14;100.00
80323;BME280;69636;52.372;13.610;2024-03-02T03:54:37;100282.25;;;8.10;100.00
80323;BME280;69636;52.372;13.610;2024-03-02T03:57:05;100280.44;;;8.11;100.00
80323;BME280;69636;52.372;13.610;2024-03-02T03:59:32;100287.19;;;8.05;100.00
80323;BME280;69636;52.372;13.610;2024-03-02T04:02:00;100284.16;;;8.18;100.00
80323;BME280;69636;52.372;13.610;2024-03-02T04:04:28;100276.38;;;8.16;100.00
80323;BME280;69636;52.372;13.610;2024-03-02T04:06:57;100276.53;;;8.15;100.00
80323;BME280;69636;52.372;13.610;2024-03-02T04:09:24;100282.53;;;8.07;100.00
80323;BME280;69636;52.372;13.610;2024-03-02T04:11:53;100283.22;;;8.09;100.00
80323;BME280;69636;52.372;13.610;2024-03-02T04:14:21;100280.88;;;8.06;100.00
80323;BME280;69636;52.372;13.610;2024-03-02T04:16:48;100283.91;;;8.11;100.00
80323;BME280;69636;52.372;13.610;2024-03-02T04:19:16;100269.31;;;8.07;100.00
80323;BME280;69636;52.372;13.610;2024-03-02T04:21:46;100270.16;;;8.08;100.00
80323;BME280;69636;52.372;13.610;2024-03-02T04:24:15;100267.31;;;8.01;100.00
80323;BME280;69636;52.372;13.610;2024-03-02T04:26:43;100273.72;;;7.99;100.00
80323;BME280;69636;52.372;13.610;2024-03-02T04:29:10;100275.09;;;8.03;100.00
80323;BME280;69636;52.372;13.610;2024-03-02T04:31:38;100274.53;;;7.99;100.00
80323;BME280;69636;52.372;13.610;2024-03-02T04:34:05;100281.78;;;7.97;100.00
80323;BME280;69636;52.372;13.610;2024-03-02T04:36:33;100285.41;;;7.96;100.00
80323;BME280;69636;52.372;13.610;2024-03-02T04:39:00;100293.19;;;7.98;100.00
80323;BME280;69636;52.372;13.610;2024-03-02T04:41:29;100291.22;;;8.00;100.00
80323;BME280;69636;52.372;13.610;2024-03-02T04:43:56;100295.97;;;7.96;100.00
80323;BME280;69636;52.372;13.610;2024-03-02T04:46:24;100298.22;;;7.91;100.00
80323;BME280;69636;52.372;13.610;2024-03-02T04:48:51;100288.94;;;7.87;100.00
80323;BME280;69636;52.372;13.610;2024-03-02T04:51:18;100295.72;;;7.90;100.00
80323;BME280;69636;52.372;13.610;2024-03-02T04:53:46;100301.56;;;7.93;100.00
80323;BME280;69636;52.372;13.610;2024-03-02T04:56:13;100311.84;;;7.96;100.00
80323;BME280;69636;52.372;13.610;2024-03-02T04:58:42;100319.34;;;8.01;100.00
80323;BME280;69636;52.372;13.610;2024-03-02T05:01:10;100319.69;;;8.06;100.00
80323;BME280;69636;52.372;13.610;2024-03-02T05:03:38;100327.81;;;8.04;100.00
80323;BME280;69636;52.372;13.610;2024-03-02T05:06:06;100321.81;;;8.02;100.00
80323;BME280;69636;52.372;13.610;2024-03-02T05:08:33;100330.91;;;8.17;100.00
80323;BME280;69636;52.372;13.610;2024-03-02T05:11:01;100321.03;;;8.20;100.00
80323;BME280;69636;52.372;13.610;2024-03-02T05:13:29;100323.41;;;8.13;100.00
80323;BME280;69636;52.372;13.610;2024-03-02T05:15:58;100323.41;;;8.13;100.00
80323;BME280;69636;52.372;13.610;2024-03-02T05:18:26;100325.53;;;8.09;100.00
80323;BME280;69636;52.372;13.610;2024-03-02T05:20:53;100325.66;;;8.08;100.00
80323;BME280;69636;52.372;13.610;2024-03-02T05:23:20;100326.50;;;8.08;100.00
80323;BME280;69636;52.372;13.610;2024-03-02T05:25:48;100324.84;;;8.07;100.00
80323;BME280;69636;52.372;13.610;2024-03-02T05:28:15;100332.72;;;8.17;100.00
80323;BME280;69636;52.372;13.610;2024-03-02T05:30:43;100332.03;;;8.15;100.00
80323;BME280;69636;52.372;13.610;2024-03-02T05:33:12;100335.81;;;8.12;100.00
80323;BME280;69636;52.372;13.610;2024-03-02T05:35:40;100342.47;;;8.16;100.00
80323;BME280;69636;52.372;13.610;2024-03-02T05:38:07;100342.47;;;8.16;100.00
80323;BME280;69636;52.372;13.610;2024-03-02T05:40:35;100350.41;;;8.16;100.00
80323;BME280;69636;52.372;13.610;2024-03-02T05:43:02;100356.28;;;8.10;100.00
80323;BME280;69636;52.372;13.610;2024-03-02T05:45:30;100357.25;;;8.09;100.00
80323;BME280;69636;52.372;13.610;2024-03-02T05:47:57;100355.59;;;8.08;100.00
80323;BME280;69636;52.372;13.610;2024-03-02T05:50:27;100364.31;;;8.18;100.00
80323;BME280;69636;52.372;13.610;2024-03-02T05:52:55;100365.28;;;8.17;100.00
80323;BME280;69636;52.372;13.610;2024-03-02T05:55:22;100361.78;;;8.27;100.00
80323;BME280;69636;52.372;13.610;2024-03-02T05:57:49;100356.63;;;8.25;100.00
80323;BME280;69636;52.372;13.610;2024-03-02T06:00:17;100348.44;;;8.18;100.00
80323;BME280;69636;52.372;13.610;2024-03-02T06:02:45;100356.66;;;8.15;100.00
80323;BME280;69636;52.372;13.610;2024-03-02T06:05:13;100353.28;;;8.23;100.00
80323;BME280;69636;52.372;13.610;2024-03-02T06:07:41;100359.84;;;8.19;100.00
80323;BME280;69636;52.372;13.610;2024-03-02T06:10:11;100354.41;;;8.21;100.00
80323;BME280;69636;52.372;13.610;2024-03-02T06:12:40;100350.41;;;8.16;100.00
80323;BME280;69636;52.372;13.610;2024-03-02T06:15:09;100349.72;;;8.14;100.00
80323;BME280;69636;52.372;13.610;2024-03-02T06:17:36;100355.44;;;8.10;100.00
80323;BME280;69636;52.372;13.610;2024-03-02T06:20:05;100360.72;;;8.10;100.00
80323;BME280;69636;52.372;13.610;2024-03-02T06:22:32;100366.16;;;8.08;100.00
80323;BME280;69636;52.372;13.610;2024-03-02T06:25:01;100371.59;;;8.07;100.00
80323;BME280;69636;52.372;13.610;2024-03-02T06:27:28;100369.63;;;8.09;100.00
80323;BME280;69636;52.372;13.610;2024-03-02T06:29:57;100382.16;;;8.07;100.00
80323;BME280;69636;52.372;13.610;2024-03-02T06:32:24;100383.31;;;8.04;100.00
80323;BME280;69636;52.372;13.610;2024-03-02T06:34:52;100382.78;;;8.01;100.00
80323;BME280;69636;52.372;13.610;2024-03-02T06:37:19;100382.78;;;8.01;100.00
80323;BME280;69636;52.372;13.610;2024-03-02T06:39:46;100391.91;;;8.06;100.00
80323;BME280;69636;52.372;13.610;2024-03-02T06:42:15;100390.63;;;8.10;100.00
80323;BME280;69636;52.372;13.610;2024-03-02T06:44:42;100385.22;;;8.12;100.00
80323;BME280;69636;52.372;13.610;2024-03-02T06:47:10;100387.72;;;8.13;100.00
80323;BME280;69636;52.372;13.610;2024-03-02T06:49:37;100381.28;;;8.16;100.00
80323;BME280;69636;52.372;13.610;2024-03-02T06:52:05;100389.09;;;8.17;100.00
80323;BME280;69636;52.372;13.610;2024-03-02T06:54:33;100385.47;;;8.18;100.00
80323;BME280;69636;52.372;13.610;2024-03-02T06:57:00;100387.41;;;8.16;100.00
80323;BME280;69636;52.372;13.610;2024-03-02T06:59:29;100393.09;;;8.22;100.00
80323;BME280;69636;52.372;13.610;2024-03-02T07:01:56;100391.28;;;8.22;100.00
80323;BME280;69636;52.372;13.610;2024-03-02T07:04:24;100397.66;;;8.29;100.00
80323;BME280;69636;52.372;13.610;2024-03-02T07:06:52;100394.59;;;8.34;100.00
80323;BME280;69636;52.372;13.610;2024-03-02T07:09:19;100399.34;;;8.30;100.00
80323;BME280;69636;52.372;13.610;2024-03-02T07:11:47;100398.50;;;8.30;100.00
80323;BME280;69636;52.372;13.610;2024-03-02T07:14:18;100395.72;;;8.31;100.00
80323;BME280;69636;52.372;13.610;2024-03-02T07:16:47;100402.81;;;8.31;100.00
80323;BME280;69636;52.372;13.610;2024-03-02T07:19:18;100413.78;;;8.36;100.00
80323;BME280;69636;52.372;13.610;2024-03-02T07:21:46;100414.06;;;8.33;100.00
80323;BME280;69636;52.372;13.610;2024-03-02T07:24:14;100418.53;;;8.32;100.00
80323;BME280;69636;52.372;13.610;2024-03-02T07:26:41;100423.97;;;8.31;100.00
80323;BME280;69636;52.372;13.610;2024-03-02T07:29:11;100431.06;;;8.30;100.00
80323;BME280;69636;52.372;13.610;2024-03-02T07:31:39;100431.75;;;8.32;100.00
80323;BME280;69636;52.372;13.610;2024-03-02T07:34:07;100433.13;;;8.36;100.00
80323;BME280;69636;52.372;13.610;2024-03-02T07:36:35;100433.28;;;8.35;100.00
80323;BME280;69636;52.372;13.610;2024-03-02T07:39:04;100442.63;;;8.29;100.00
80323;BME280;69636;52.372;13.610;2024-03-02T07:41:31;100440.00;;;8.20;100.00
80323;BME280;69636;52.372;13.610;2024-03-02T07:43:59;100448.75;;;8.30;100.00
80323;BME280;69636;52.372;13.610;2024-03-02T07:46:28;100450.81;;;8.36;100.00
80323;BME280;69636;52.372;13.610;2024-03-02T07:48:55;100449.81;;;8.46;100.00
80323;BME280;69636;52.372;13.610;2024-03-02T07:51:24;100446.56;;;8.53;100.00
80323;BME280;69636;52.372;13.610;2024-03-02T07:53:52;100453.31;;;8.65;100.00
80323;BME280;69636;52.372;13.610;2024-03-02T07:56:20;100460.75;;;8.79;100.00
80323;BME280;69636;52.372;13.610;2024-03-02T07:58:47;100457.34;;;8.69;100.00
80323;BME280;69636;52.372;13.610;2024-03-02T08:01:15;100463.47;;;8.69;100.00
80323;BME280;69636;52.372;13.610;2024-03-02T08:03:44;100459.25;;;8.76;100.00
80323;BME280;69636;52.372;13.610;2024-03-02T08:06:13;100471.69;;;8.66;100.00
80323;BME280;69636;52.372;13.610;2024-03-02T08:08:43;100458.16;;;8.69;100.00
80323;BME280;69636;52.372;13.610;2024-03-02T08:11:11;100467.22;;;8.67;100.00
80323;BME280;69636;52.372;13.610;2024-03-02T08:13:38;100473.66;;;8.64;100.00
80323;BME280;69636;52.372;13.610;2024-03-02T08:16:06;100472.78;;;8.73;100.00
80323;BME280;69636;52.372;13.610;2024-03-02T08:18:34;100476.50;;;8.80;100.00
80323;BME280;69636;52.372;13.610;2024-03-02T08:21:02;100480.13;;;8.79;100.00
80323;BME280;69636;52.372;13.610;2024-03-02T08:23:29;100478.47;;;8.78;100.00
80323;BME280;69636;52.372;13.610;2024-03-02T08:25:59;100482.97;;;8.68;100.00
80323;BME280;69636;52.372;13.610;2024-03-02T08:28:27;100483.25;;;8.65;100.00
80323;BME280;69636;52.372;13.610;2024-03-02T08:30:54;100486.41;;;8.51;100.00
80323;BME280;69636;52.372;13.610;2024-03-02T08:33:21;100486.34;;;8.61;100.00
80323;BME280;69636;52.372;13.610;2024-03-02T08:35:50;100489.66;;;8.63;100.00
80323;BME280;69636;52.372;13.610;2024-03-02T08:38:21;100487.66;;;8.74;100.00
80323;BME280;69636;52.372;13.610;2024-03-02T08:40:50;100484.22;;;8.92;100.00
80323;BME280;69636;52.372;13.610;2024-03-02T08:43:19;100484.81;;;8.85;100.00
80323;BME280;69636;52.372;13.610;2024-03-02T08:45:46;100487.91;;;8.81;100.00
80323;BME280;69636;52.372;13.610;2024-03-02T08:48:15;100485.41;;;8.79;100.00
80323;BME280;69636;52.372;13.610;2024-03-02T08:50:42;100492.66;;;8.77;100.00
80323;BME280;69636;52.372;13.610;2024-03-02T08:53:09;100496.00;;;8.79;100.00
80323;BME280;69636;52.372;13.610;2024-03-02T08:55:37;100498.66;;;8.79;100.00
80323;BME280;69636;52.372;13.610;2024-03-02T08:58:04;100498.53;;;8.71;100.00
80323;BME280;69636;52.372;13.610;2024-03-02T09:00:33;100497.97;;;8.77;100.00
80323;BME280;69636;52.372;13.610;2024-03-02T09:03:01;100498.25;;;8.74;100.00
80323;BME280;69636;52.372;13.610;2024-03-02T09:05:28;100491.28;;;8.73;100.00
80323;BME280;69636;52.372;13.610;2024-03-02T09:07:57;100506.81;;;8.86;100.00
80323;BME280;69636;52.372;13.610;2024-03-02T09:10:24;100503.03;;;8.89;100.00
80323;BME280;69636;52.372;13.610;2024-03-02T09:12:54;100504.00;;;8.88;100.00
80323;BME280;69636;52.372;13.610;2024-03-02T09:15:22;100501.28;;;9.07;100.00
80323;BME280;69636;52.372;13.610;2024-03-02T09:17:51;100504.97;;;9.14;100.00
80323;BME280;69636;52.372;13.610;2024-03-02T09:20:18;100500.44;;;9.24;100.00
80323;BME280;69636;52.372;13.610;2024-03-02T09:22:45;100502.59;;;9.11;100.00
80323;BME280;69636;52.372;13.610;2024-03-02T09:25:14;100494.69;;;9.29;100.00
80323;BME280;69636;52.372;13.610;2024-03-02T09:27:41;100490.38;;;9.45;100.00
80323;BME280;69636;52.372;13.610;2024-03-02T09:30:09;100485.56;;;9.67;100.00
80323;BME280;69636;52.372;13.610;2024-03-02T09:32:37;100495.19;;;9.68;100.00
80323;BME280;69636;52.372;13.610;2024-03-02T09:35:12;100501.53;;;9.75;100.00
80323;BME280;69636;52.372;13.610;2024-03-02T09:37:39;100507.00;;;9.99;100.00
80323;BME280;69636;52.372;13.610;2024-03-02T09:40:07;100498.94;;;10.27;100.00
80323;BME280;69636;52.372;13.610;2024-03-02T09:42:37;100504.78;;;10.72;100.00
80323;BME280;69636;52.372;13.610;2024-03-02T09:45:06;100510.53;;;11.10;100.00
80323;BME280;69636;52.372;13.610;2024-03-02T09:47:33;100501.44;;;11.45;100.00
80323;BME280;69636;52.372;13.610;2024-03-02T09:50:01;100501.16;;;11.80;100.00
80323;BME280;69636;52.372;13.610;2024-03-02T09:52:31;100492.00;;;11.67;100.00
80323;BME280;69636;52.372;13.610;2024-03-02T09:54:59;100502.28;;;11.29;100.00
80323;BME280;69636;52.372;13.610;2024-03-02T09:57:27;100504.63;;;11.40;100.00
80323;BME280;69636;52.372;13.610;2024-03-02T09:59:55;100504.94;;;11.45;100.00
80323;BME280;69636;52.372;13.610;2024-03-02T10:02:22;100513.03;;;11.19;100.00
80323;BME280;69636;52.372;13.610;2024-03-02T10:04:51;100518.13;;;10.97;100.00
80323;BME280;69636;52.372;13.610;2024-03-02T10:07:19;100509.66;;;10.93;100.00
80323;BME280;69636;52.372;13.610;2024-03-02T10:09:48;100509.88;;;11.08;100.00
80323;BME280;69636;52.372;13.610;2024-03-02T10:12:17;100516.22;;;11.47;100.00
80323;BME280;69636;52.372;13.610;2024-03-02T10:14:46;100499.66;;;11.86;97.84
80323;BME280;69636;52.372;13.610;2024-03-02T10:17:14;100502.50;;;11.84;96.17
80323;BME280;69636;52.372;13.610;2024-03-02T10:19:42;100514.25;;;11.74;97.70
80323;BME280;69636;52.372;13.610;2024-03-02T10:22:09;100519.06;;;11.46;98.89
80323;BME280;69636;52.372;13.610;2024-03-02T10:24:37;100519.88;;;11.46;98.52
80323;BME280;69636;52.372;13.610;2024-03-02T10:27:15;100511.25;;;11.44;97.45
80323;BME280;69636;52.372;13.610;2024-03-02T10:29:46;100509.25;;;11.71;97.58
80323;BME280;69636;52.372;13.610;2024-03-02T10:32:15;100505.63;;;11.64;98.17
80323;BME280;69636;52.372;13.610;2024-03-02T10:34:44;100511.59;;;11.57;97.33
80323;BME280;69636;52.372;13.610;2024-03-02T10:37:12;100517.03;;;11.15;99.32
80323;BME280;69636;52.372;13.610;2024-03-02T10:39:40;100503.41;;;11.10;97.18
80323;BME280;69636;52.372;13.610;2024-03-02T10:42:09;100510.53;;;11.18;98.33
80323;BME280;69636;52.372;13.610;2024-03-02T10:44:37;100501.56;;;11.19;98.76
80323;BME280;69636;52.372;13.610;2024-03-02T10:47:05;100499.09;;;11.26;98.92
80323;BME280;69636;52.372;13.610;2024-03-02T10:49:33;100495.91;;;11.06;98.95
80323;BME280;69636;52.372;13.610;2024-03-02T10:52:01;100495.13;;;11.13;99.75
80323;BME280;69636;52.372;13.610;2024-03-02T10:54:30;100497.28;;;11.26;98.10
80323;BME280;69636;52.372;13.610;2024-03-02T10:56:59;100491.81;;;11.36;99.43
80323;BME280;69636;52.372;13.610;2024-03-02T10:59:32;100492.63;;;11.28;99.35
80323;BME280;69636;52.372;13.610;2024-03-02T11:02:01;100491.31;;;11.48;99.04
80323;BME280;69636;52.372;13.610;2024-03-02T11:04:32;100497.97;;;11.44;97.23
80323;BME280;69636;52.372;13.610;2024-03-02T11:07:03;100491.50;;;11.63;97.18
80323;BME280;69636;52.372;13.610;2024-03-02T11:09:34;100493.34;;;11.95;93.45
80323;BME280;69636;52.372;13.610;2024-03-02T11:12:05;100489.00;;;12.02;95.36
80323;BME280;69636;52.372;13.610;2024-03-02T11:14:41;100489.09;;;12.25;92.53
80323;BME280;69636;52.372;13.610;2024-03-02T11:17:09;100485.81;;;12.62;91.35
80323;BME280;69636;52.372;13.610;2024-03-02T11:19:40;100496.72;;;12.75;88.04
80323;BME280;69636;52.372;13.610;2024-03-02T11:22:08;100489.06;;;13.42;86.64
80323;BME280;69636;52.372;13.610;2024-03-02T11:24:37;100489.69;;;13.82;83.49
80323;BME280;69636;52.372;13.610;2024-03-02T11:27:06;100490.44;;;14.28;78.68
80323;BME280;69636;52.372;13.610;2024-03-02T11:29:46;100480.72;;;14.86;75.27
80323;BME280;69636;52.372;13.610;2024-03-02T11:32:15;100485.69;;;16.23;70.49
80323;BME280;69636;52.372;13.610;2024-03-02T11:34:45;100486.78;;;16.70;66.82
80323;BME280;69636;52.372;13.610;2024-03-02T11:37:13;100481.31;;;16.50;65.09
80323;BME280;69636;52.372;13.610;2024-03-02T11:39:43;100484.97;;;16.43;64.67
80323;BME280;69636;52.372;13.610;2024-03-02T11:42:11;100481.09;;;15.83;67.52
80323;BME280;69636;52.372;13.610;2024-03-02T11:44:39;100481.13;;;16.17;68.87
80323;BME280;69636;52.372;13.610;2024-03-02T11:47:10;100477.72;;;15.74;67.52
80323;BME280;69636;52.372;13.610;2024-03-02T11:49:39;100481.50;;;15.80;67.56
80323;BME280;69636;52.372;13.610;2024-03-02T11:52:08;100473.81;;;16.39;63.83
80323;BME280;69636;52.372;13.610;2024-03-02T11:54:37;100475.63;;;17.14;60.76
80323;BME280;69636;52.372;13.610;2024-03-02T11:57:05;100476.47;;;16.67;59.94
80323;BME280;69636;52.372;13.610;2024-03-02T11:59:33;100481.09;;;16.45;61.09
80323;BME280;69636;52.372;13.610;2024-03-02T12:02:02;100472.44;;;16.50;59.60
80323;BME280;69636;52.372;13.610;2024-03-02T12:04:30;100476.06;;;16.29;60.25
80323;BME280;69636;52.372;13.610;2024-03-02T12:07:00;100469.94;;;16.42;61.38
80323;BME280;69636;52.372;13.610;2024-03-02T12:09:28;100467.00;;;17.39;57.61
80323;BME280;69636;52.372;13.610;2024-03-02T12:12:03;100470.69;;;17.44;57.96
80323;BME280;69636;52.372;13.610;2024-03-02T12:14:31;100459.56;;;17.54;56.13
80323;BME280;69636;52.372;13.610;2024-03-02T12:16:59;100462.66;;;18.04;53.86
80323;BME280;69636;52.372;13.610;2024-03-02T12:19:27;100453.81;;;17.90;53.83
80323;BME280;69636;52.372;13.610;2024-03-02T12:21:57;100459.03;;;18.62;52.03
80323;BME280;69636;52.372;13.610;2024-03-02T12:24:26;100455.16;;;19.28;49.76
80323;BME280;69636;52.372;13.610;2024-03-02T12:26:54;100454.41;;;20.20;47.38
80323;BME280;69636;52.372;13.610;2024-03-02T12:29:21;100454.88;;;19.92;46.21
80323;BME280;69636;52.372;13.610;2024-03-02T12:31:50;100460.81;;;18.17;50.70
80323;BME280;69636;52.372;13.610;2024-03-02T12:34:18;100467.63;;;18.00;52.86
80323;BME280;69636;52.372;13.610;2024-03-02T12:36:46;100471.94;;;17.48;52.67
80323;BME280;69636;52.372;13.610;2024-03-02T12:39:15;100464.75;;;17.69;53.40
80323;BME280;69636;52.372;13.610;2024-03-02T12:41:43;100460.75;;;17.12;53.96
80323;BME280;69636;52.372;13.610;2024-03-02T12:44:11;100458.56;;;17.68;53.10
80323;BME280;69636;52.372;13.610;2024-03-02T12:46:39;100454.22;;;17.87;51.87